sensor_id;sensor_type;location;lat;lon;timestamp;pressure;altitude;pressure_sealevel;temperature;humidity
61436;BME280;47304;47.456;19.160;2023-07-08T00:00:23;100788.60;;;19.58;56.99
61436;BME280;47304;47.456;19.160;2023-07-08T00:02:50;100788.84;;;19.56;57.23
61436;BME280;47304;47.456;19.160;2023-07-08T00:05:20;100788.37;;;19.54;57.44
61436;BME280;47304;47.456;19.160;2023-07-08T00:07:47;100790.95;;;19.51;57.50
61436;BME280;47304;47.456;19.160;2023-07-08T00:10:25;100784.83;;;19.48;57.49
61436;BME280;47304;47.456;19.160;2023-07-08T00:12:55;100790.58;;;19.45;57.43
61436;BME280;47304;47.456;19.160;2023-07-08T00:15:25;100786.25;;;19.42;57.69
61436;BME280;47304;47.456;19.160;2023-07-08T00:17:52;100790.05;;;19.40;57.81
61436;BME280;47304;47.456;19.160;2023-07-08T00:20:23;100791.05;;;19.36;57.97
61436;BME280;47304;47.456;19.160;2023-07-08T00:22:52;100785.73;;;19.30;57.93
61436;BME280;47304;47.456;19.160;2023-07-08T00:25:19;100789.32;;;19.28;58.15
61436;BME280;47304;47.456;19.160;2023-07-08T00:27:46;100791.29;;;19.22;58.19
61436;BME280;47304;47.456;19.160;2023-07-08T00:30:27;100788.41;;;19.17;58.51
61436;BME280;47304;47.456;19.160;2023-07-08T00:32:58;100791.59;;;19.11;58.84
61436;BME280;47304;47.456;19.160;2023-07-08T00:35:42;100786.10;;;19.05;59.06
61436;BME280;47304;47.456;19.160;2023-07-08T00:38:27;100783.59;;;19.00;59.13
61436;BME280;47304;47.456;19.160;2023-07-08T00:43:38;100781.11;;;18.93;59.52
61436;BME280;47304;47.456;19.160;2023-07-08T00:46:13;100778.18;;;18.89;59.67
61436;BME280;47304;47.456;19.160;2023-07-08T00:48:43;100776.73;;;18.84;59.76
61436;BME280;47304;47.456;19.160;2023-07-08T00:51:11;100777.75;;;18.79;59.92
61436;BME280;47304;47.456;19.160;2023-07-08T00:53:38;100780.36;;;18.75;60.03
61436;BME280;47304;47.456;19.160;2023-07-08T00:56:20;100777.32;;;18.69;60.29
61436;BME280;47304;47.456;19.160;2023-07-08T00:59:00;100775.86;;;18.64;60.41
61436;BME280;47304;47.456;19.160;2023-07-08T01:01:29;100777.38;;;18.61;60.49
61436;BME280;47304;47.456;19.160;2023-07-08T01:04:04;100776.61;;;18.56;60.73
61436;BME280;47304;47.456;19.160;2023-07-08T01:06:35;100776.18;;;18.52;60.89
61436;BME280;47304;47.456;19.160;2023-07-08T01:09:03;100772.73;;;18.48;60.89
61436;BME280;47304;47.456;19.160;2023-07-08T01:11:31;100771.05;;;18.45;60.99
61436;BME280;47304;47.456;19.160;2023-07-08T01:14:00;100766.05;;;18.40;61.05
61436;BME280;47304;47.456;19.160;2023-07-08T01:16:27;100770.17;;;18.38;61.26
61436;BME280;47304;47.456;19.160;2023-07-08T01:18:54;100767.98;;;18.33;61.53
61436;BME280;47304;47.456;19.160;2023-07-08T01:24:01;100773.65;;;18.27;61.52
61436;BME280;47304;47.456;19.160;2023-07-08T01:26:30;100772.47;;;18.24;61.66
61436;BME280;47304;47.456;19.160;2023-07-08T01:28:58;100776.43;;;18.22;61.83
61436;BME280;47304;47.456;19.160;2023-07-08T01:31:24;100774.73;;;18.19;61.88
61436;BME280;47304;47.456;19.160;2023-07-08T01:33:52;100778.71;;;18.16;61.85
61436;BME280;47304;47.456;19.160;2023-07-08T01:36:19;100776.86;;;18.13;61.75
61436;BME280;47304;47.456;19.160;2023-07-08T01:38:46;100776.90;;;18.10;61.80
61436;BME280;47304;47.456;19.160;2023-07-08T01:41:16;100777.33;;;18.07;61.74
61436;BME280;47304;47.456;19.160;2023-07-08T01:43:43;100778.44;;;18.06;61.78
61436;BME280;47304;47.456;19.160;2023-07-08T01:46:14;100772.98;;;18.04;61.90
61436;BME280;47304;47.456;19.160;2023-07-08T01:48:46;100771.16;;;18.00;61.86
61436;BME280;47304;47.456;19.160;2023-07-08T01:51:14;100769.98;;;17.97;62.10
61436;BME280;47304;47.456;19.160;2023-07-08T01:53:42;100772.28;;;17.96;62.10
61436;BME280;47304;47.456;19.160;2023-07-08T01:56:10;100770.74;;;17.93;62.17
61436;BME280;47304;47.456;19.160;2023-07-08T01:58:37;100767.10;;;17.90;62.47
61436;BME280;47304;47.456;19.160;2023-07-08T02:01:05;100765.02;;;17.87;62.46
61436;BME280;47304;47.456;19.160;2023-07-08T02:03:32;100765.63;;;17.85;62.68
61436;BME280;47304;47.456;19.160;2023-07-08T02:05:58;100761.95;;;17.83;62.75
61436;BME280;47304;47.456;19.160;2023-07-08T02:08:25;100758.46;;;17.80;62.90
61436;BME280;47304;47.456;19.160;2023-07-08T02:10:54;100760.48;;;17.77;62.85
61436;BME280;47304;47.456;19.160;2023-07-08T02:13:22;100763.08;;;17.73;63.06
61436;BME280;47304;47.456;19.160;2023-07-08T02:15:50;100766.02;;;17.68;63.03
61436;BME280;47304;47.456;19.160;2023-07-08T02:18:17;100767.54;;;17.64;63.25
61436;BME280;47304;47.456;19.160;2023-07-08T02:20:44;100764.20;;;17.62;63.36
61436;BME280;47304;47.456;19.160;2023-07-08T02:23:10;100764.44;;;17.60;63.32
61436;BME280;47304;47.456;19.160;2023-07-08T02:25:37;100766.25;;;17.58;63.39
61436;BME280;47304;47.456;19.160;2023-07-08T02:28:04;100766.30;;;17.56;63.42
61436;BME280;47304;47.456;19.160;2023-07-08T02:30:31;100770.05;;;17.55;63.40
61436;BME280;47304;47.456;19.160;2023-07-08T02:32:57;100770.77;;;17.55;63.44
61436;BME280;47304;47.456;19.160;2023-07-08T02:35:28;100767.94;;;17.54;63.40
61436;BME280;47304;47.456;19.160;2023-07-08T02:37:56;100769.70;;;17.55;63.49
61436;BME280;47304;47.456;19.160;2023-07-08T02:40:24;100773.40;;;17.55;63.51
61436;BME280;47304;47.456;19.160;2023-07-08T02:42:51;100772.70;;;17.54;63.61
61436;BME280;47304;47.456;19.160;2023-07-08T02:45:19;100774.85;;;17.54;63.71
61436;BME280;47304;47.456;19.160;2023-07-08T02:47:45;100775.59;;;17.52;63.70
61436;BME280;47304;47.456;19.160;2023-07-08T02:50:13;100776.16;;;17.51;63.79
61436;BME280;47304;47.456;19.160;2023-07-08T02:52:39;100778.84;;;17.50;63.91
61436;BME280;47304;47.456;19.160;2023-07-08T02:55:06;100779.39;;;17.49;63.96
61436;BME280;47304;47.456;19.160;2023-07-08T02:57:33;100777.65;;;17.48;64.01
61436;BME280;47304;47.456;19.160;2023-07-08T03:00:00;100779.08;;;17.47;64.12
61436;BME280;47304;47.456;19.160;2023-07-08T03:02:27;100779.81;;;17.46;64.19
61436;BME280;47304;47.456;19.160;2023-07-08T03:04:53;100778.41;;;17.45;64.23
61436;BME280;47304;47.456;19.160;2023-07-08T03:07:20;100779.55;;;17.42;64.54
61436;BME280;47304;47.456;19.160;2023-07-08T03:09:46;100779.60;;;17.39;64.69
61436;BME280;47304;47.456;19.160;2023-07-08T03:12:13;100783.73;;;17.38;65.00
61436;BME280;47304;47.456;19.160;2023-07-08T03:14:39;100784.64;;;17.36;65.29
61436;BME280;47304;47.456;19.160;2023-07-08T03:17:06;100784.66;;;17.35;65.46
61436;BME280;47304;47.456;19.160;2023-07-08T03:19:32;100783.25;;;17.35;65.69
61436;BME280;47304;47.456;19.160;2023-07-08T03:21:59;100784.31;;;17.35;65.90
61436;BME280;47304;47.456;19.160;2023-07-08T03:24:25;100788.38;;;17.35;66.07
61436;BME280;47304;47.456;19.160;2023-07-08T03:26:52;100790.48;;;17.36;66.12
61436;BME280;47304;47.456;19.160;2023-07-08T03:29:19;100791.52;;;17.37;66.21
61436;BME280;47304;47.456;19.160;2023-07-08T03:31:46;100792.77;;;17.37;66.34
61436;BME280;47304;47.456;19.160;2023-07-08T03:34:13;100795.02;;;17.40;66.27
61436;BME280;47304;47.456;19.160;2023-07-08T03:36:47;100803.14;;;17.40;66.20
61436;BME280;47304;47.456;19.160;2023-07-08T03:39:19;100802.26;;;17.40;66.12
61436;BME280;47304;47.456;19.160;2023-07-08T03:41:47;100804.53;;;17.41;65.99
61436;BME280;47304;47.456;19.160;2023-07-08T03:44:14;100804.53;;;17.41;66.07
61436;BME280;47304;47.456;19.160;2023-07-08T03:46:43;100802.73;;;17.43;66.21
61436;BME280;47304;47.456;19.160;2023-07-08T03:49:10;100805.98;;;17.48;66.39
61436;BME280;47304;47.456;19.160;2023-07-08T03:51:39;100804.88;;;17.50;66.04
61436;BME280;47304;47.456;19.160;2023-07-08T03:54:06;100805.38;;;17.51;65.87
61436;BME280;47304;47.456;19.160;2023-07-08T03:56:35;100805.71;;;17.52;65.48
61436;BME280;47304;47.456;19.160;2023-07-08T03:59:01;100803.75;;;17.53;65.37
61436;BME280;47304;47.456;19.160;2023-07-08T04:01:28;100803.55;;;17.53;65.29
61436;BME280;47304;47.456;19.160;2023-07-08T04:03:56;100804.42;;;17.54;65.10
61436;BME280;47304;47.456;19.160;2023-07-08T04:06:24;100802.83;;;17.55;65.19
61436;BME280;47304;47.456;19.160;2023-07-08T04:08:51;100803.34;;;17.56;65.05
61436;BME280;47304;47.456;19.160;2023-07-08T04:11:20;100802.20;;;17.59;65.01
61436;BME280;47304;47.456;19.160;2023-07-08T04:13:48;100800.88;;;17.62;65.08
61436;BME280;47304;47.456;19.160;2023-07-08T04:16:25;100802.39;;;17.66;65.10
61436;BME280;47304;47.456;19.160;2023-07-08T04:18:53;100805.11;;;17.71;65.00
61436;BME280;47304;47.456;19.160;2023-07-08T04:21:21;100808.18;;;17.76;64.86
61436;BME280;47304;47.456;19.160;2023-07-08T04:23:49;100807.52;;;17.81;64.86
61436;BME280;47304;47.456;19.160;2023-07-08T04:26:15;100807.92;;;17.87;64.67
61436;BME280;47304;47.456;19.160;2023-07-08T04:28:42;100810.29;;;17.93;64.44
61436;BME280;47304;47.456;19.160;2023-07-08T04:31:09;100811.55;;;18.00;64.41
61436;BME280;47304;47.456;19.160;2023-07-08T04:33:36;100814.58;;;18.07;64.20
61436;BME280;47304;47.456;19.160;2023-07-08T04:36:02;100811.36;;;18.15;63.74
61436;BME280;47304;47.456;19.160;2023-07-08T04:38:29;100811.11;;;18.25;63.51
61436;BME280;47304;47.456;19.160;2023-07-08T04:40:56;100809.92;;;18.37;63.02
61436;BME280;47304;47.456;19.160;2023-07-08T04:43:22;100813.37;;;18.48;62.63
61436;BME280;47304;47.456;19.160;2023-07-08T04:45:51;100806.19;;;18.58;62.29
61436;BME280;47304;47.456;19.160;2023-07-08T04:48:20;100811.17;;;18.70;61.89
61436;BME280;47304;47.456;19.160;2023-07-08T04:50:49;100808.38;;;18.81;61.72
61436;BME280;47304;47.456;19.160;2023-07-08T04:53:15;100809.69;;;18.93;61.17
61436;BME280;47304;47.456;19.160;2023-07-08T04:55:48;100812.77;;;19.03;60.57
61436;BME280;47304;47.456;19.160;2023-07-08T04:58:16;100817.83;;;19.13;59.89
61436;BME280;47304;47.456;19.160;2023-07-08T05:00:43;100819.88;;;19.22;60.14
61436;BME280;47304;47.456;19.160;2023-07-08T05:03:09;100824.48;;;19.28;59.52
61436;BME280;47304;47.456;19.160;2023-07-08T05:05:36;100818.90;;;19.31;58.93
61436;BME280;47304;47.456;19.160;2023-07-08T05:08:03;100819.59;;;19.32;58.31
61436;BME280;47304;47.456;19.160;2023-07-08T05:10:29;100818.36;;;19.32;58.34
61436;BME280;47304;47.456;19.160;2023-07-08T05:12:56;100822.60;;;19.32;58.07
61436;BME280;47304;47.456;19.160;2023-07-08T05:15:22;100823.64;;;19.32;58.13
61436;BME280;47304;47.456;19.160;2023-07-08T05:17:50;100827.66;;;19.36;58.02
61436;BME280;47304;47.456;19.160;2023-07-08T05:20:18;100828.18;;;19.42;58.01
61436;BME280;47304;47.456;19.160;2023-07-08T05:22:45;100827.59;;;19.49;57.88
61436;BME280;47304;47.456;19.160;2023-07-08T05:25:12;100828.02;;;19.59;57.23
61436;BME280;47304;47.456;19.160;2023-07-08T05:27:40;100834.00;;;19.67;56.91
61436;BME280;47304;47.456;19.160;2023-07-08T05:30:08;100835.70;;;19.75;56.62
61436;BME280;47304;47.456;19.160;2023-07-08T05:32:38;100838.64;;;19.83;56.47
61436;BME280;47304;47.456;19.160;2023-07-08T05:35:04;100838.30;;;19.89;56.55
61436;BME280;47304;47.456;19.160;2023-07-08T05:37:36;100839.98;;;19.93;56.45
61436;BME280;47304;47.456;19.160;2023-07-08T05:40:03;100843.04;;;19.97;56.60
61436;BME280;47304;47.456;19.160;2023-07-08T05:42:30;100842.64;;;20.04;56.31
61436;BME280;47304;47.456;19.160;2023-07-08T05:44:57;100844.52;;;20.12;56.16
61436;BME280;47304;47.456;19.160;2023-07-08T05:47:23;100841.09;;;20.19;56.51
61436;BME280;47304;47.456;19.160;2023-07-08T05:49:50;100843.39;;;20.30;56.58
61436;BME280;47304;47.456;19.160;2023-07-08T05:52:16;100849.59;;;20.41;56.41
61436;BME280;47304;47.456;19.160;2023-07-08T05:54:43;100849.99;;;20.56;56.11
61436;BME280;47304;47.456;19.160;2023-07-08T05:57:10;100850.38;;;20.71;55.90
61436;BME280;47304;47.456;19.160;2023-07-08T05:59:37;100845.07;;;20.86;55.35
61436;BME280;47304;47.456;19.160;2023-07-08T06:02:06;100848.70;;;21.04;54.79
61436;BME280;47304;47.456;19.160;2023-07-08T06:04:32;100848.05;;;21.21;54.20
61436;BME280;47304;47.456;19.160;2023-07-08T06:06:59;100846.02;;;21.38;53.75
61436;BME280;47304;47.456;19.160;2023-07-08T06:09:26;100850.11;;;21.52;53.06
61436;BME280;47304;47.456;19.160;2023-07-08T06:11:53;100850.30;;;21.62;52.61
61436;BME280;47304;47.456;19.160;2023-07-08T06:14:19;100846.48;;;21.68;52.50
61436;BME280;47304;47.456;19.160;2023-07-08T06:16:46;100847.93;;;21.77;52.43
61436;BME280;47304;47.456;19.160;2023-07-08T06:19:13;100844.81;;;21.83;52.19
61436;BME280;47304;47.456;19.160;2023-07-08T06:21:39;100844.42;;;21.89;51.80
61436;BME280;47304;47.456;19.160;2023-07-08T06:24:06;100850.63;;;21.94;51.34
61436;BME280;47304;47.456;19.160;2023-07-08T06:26:33;100857.66;;;22.06;51.22
61436;BME280;47304;47.456;19.160;2023-07-08T06:28:59;100859.16;;;22.17;51.20
61436;BME280;47304;47.456;19.160;2023-07-08T06:31:26;100857.67;;;22.32;51.31
61436;BME280;47304;47.456;19.160;2023-07-08T06:33:52;100854.58;;;22.47;50.39
61436;BME280;47304;47.456;19.160;2023-07-08T06:36:19;100851.49;;;22.60;48.82
61436;BME280;47304;47.456;19.160;2023-07-08T06:38:45;100846.33;;;22.69;48.17
61436;BME280;47304;47.456;19.160;2023-07-08T06:41:12;100847.49;;;22.79;48.46
61436;BME280;47304;47.456;19.160;2023-07-08T06:43:38;100843.61;;;22.90;47.97
61436;BME280;47304;47.456;19.160;2023-07-08T06:46:05;100844.73;;;23.01;48.10
61436;BME280;47304;47.456;19.160;2023-07-08T06:48:32;100847.83;;;23.11;47.28
61436;BME280;47304;47.456;19.160;2023-07-08T06:50:59;100847.61;;;23.21;46.73
61436;BME280;47304;47.456;19.160;2023-07-08T06:53:25;100845.20;;;23.27;46.85
61436;BME280;47304;47.456;19.160;2023-07-08T06:55:53;100843.67;;;23.29;47.04
61436;BME280;47304;47.456;19.160;2023-07-08T06:58:19;100841.17;;;23.33;46.97
61436;BME280;47304;47.456;19.160;2023-07-08T07:00:46;100838.47;;;23.41;45.84
61436;BME280;47304;47.456;19.160;2023-07-08T07:03:13;100838.58;;;23.50;45.33
61436;BME280;47304;47.456;19.160;2023-07-08T07:05:39;100836.45;;;23.61;45.91
61436;BME280;47304;47.456;19.160;2023-07-08T07:08:06;100834.31;;;23.72;44.86
61436;BME280;47304;47.456;19.160;2023-07-08T07:10:33;100838.91;;;23.84;44.61
61436;BME280;47304;47.456;19.160;2023-07-08T07:13:02;100833.01;;;23.96;44.35
61436;BME280;47304;47.456;19.160;2023-07-08T07:15:29;100830.27;;;24.08;43.41
61436;BME280;47304;47.456;19.160;2023-07-08T07:17:56;100829.72;;;24.16;43.30
61436;BME280;47304;47.456;19.160;2023-07-08T07:20:23;100825.38;;;24.24;42.60
61436;BME280;47304;47.456;19.160;2023-07-08T07:22:49;100826.48;;;24.30;42.60
61436;BME280;47304;47.456;19.160;2023-07-08T07:25:16;100824.98;;;24.39;42.13
61436;BME280;47304;47.456;19.160;2023-07-08T07:27:43;100825.55;;;24.49;42.70
61436;BME280;47304;47.456;19.160;2023-07-08T07:30:10;100827.37;;;24.58;43.05
61436;BME280;47304;47.456;19.160;2023-07-08T07:32:36;100825.52;;;24.71;43.20
61436;BME280;47304;47.456;19.160;2023-07-08T07:35:04;100825.57;;;24.84;42.57
61436;BME280;47304;47.456;19.160;2023-07-08T07:37:31;100828.76;;;24.91;40.99
61436;BME280;47304;47.456;19.160;2023-07-08T07:39:57;100827.88;;;24.97;41.59
61436;BME280;47304;47.456;19.160;2023-07-08T07:42:27;100827.64;;;25.09;41.97
61436;BME280;47304;47.456;19.160;2023-07-08T07:44:54;100826.33;;;25.20;41.79
61436;BME280;47304;47.456;19.160;2023-07-08T07:47:20;100821.61;;;25.28;41.46
61436;BME280;47304;47.456;19.160;2023-07-08T07:49:47;100816.48;;;25.30;40.95
61436;BME280;47304;47.456;19.160;2023-07-08T07:52:13;100821.08;;;25.31;40.09
61436;BME280;47304;47.456;19.160;2023-07-08T07:54:40;100823.13;;;25.32;39.48
61436;BME280;47304;47.456;19.160;2023-07-08T07:57:06;100824.98;;;25.34;39.69
61436;BME280;47304;47.456;19.160;2023-07-08T07:59:33;100822.36;;;25.40;40.48
61436;BME280;47304;47.456;19.160;2023-07-08T08:01:59;100822.13;;;25.51;41.39
61436;BME280;47304;47.456;19.160;2023-07-08T08:04:26;100817.33;;;25.57;39.77
61436;BME280;47304;47.456;19.160;2023-07-08T08:06:53;100815.95;;;25.56;39.51
61436;BME280;47304;47.456;19.160;2023-07-08T08:09:19;100811.26;;;25.60;40.29
61436;BME280;47304;47.456;19.160;2023-07-08T08:11:46;100804.85;;;25.72;40.71
61436;BME280;47304;47.456;19.160;2023-07-08T08:14:13;100804.56;;;25.86;41.39
61436;BME280;47304;47.456;19.160;2023-07-08T08:16:40;100808.86;;;26.01;40.85
61436;BME280;47304;47.456;19.160;2023-07-08T08:19:07;100809.30;;;26.13;39.76
61436;BME280;47304;47.456;19.160;2023-07-08T08:21:34;100806.20;;;26.20;39.34
61436;BME280;47304;47.456;19.160;2023-07-08T08:24:04;100807.00;;;26.28;38.46
61436;BME280;47304;47.456;19.160;2023-07-08T08:26:30;100800.48;;;26.35;38.35
61436;BME280;47304;47.456;19.160;2023-07-08T08:28:57;100801.28;;;26.42;38.06
61436;BME280;47304;47.456;19.160;2023-07-08T08:31:24;100803.20;;;26.49;38.52
61436;BME280;47304;47.456;19.160;2023-07-08T08:33:51;100798.28;;;26.59;38.69
61436;BME280;47304;47.456;19.160;2023-07-08T08:36:18;100795.98;;;26.70;38.47
61436;BME280;47304;47.456;19.160;2023-07-08T08:38:45;100797.60;;;26.77;36.75
61436;BME280;47304;47.456;19.160;2023-07-08T08:41:16;100799.23;;;26.83;37.84
61436;BME280;47304;47.456;19.160;2023-07-08T08:43:44;100800.45;;;26.98;37.45
61436;BME280;47304;47.456;19.160;2023-07-08T08:46:49;100799.39;;;27.15;37.26
61436;BME280;47304;47.456;19.160;2023-07-08T08:51:49;100794.36;;;27.40;35.11
61436;BME280;47304;47.456;19.160;2023-07-08T08:54:16;100797.63;;;27.51;36.24
61436;BME280;47304;47.456;19.160;2023-07-08T08:59:35;100800.40;;;27.83;35.06
61436;BME280;47304;47.456;19.160;2023-07-08T09:02:42;100795.09;;;27.98;34.43
61436;BME280;47304;47.456;19.160;2023-07-08T09:05:14;100791.30;;;28.01;34.21
61436;BME280;47304;47.456;19.160;2023-07-08T09:07:46;100785.99;;;28.05;34.40
61436;BME280;47304;47.456;19.160;2023-07-08T09:10:21;100777.76;;;28.08;33.62
61436;BME280;47304;47.456;19.160;2023-07-08T09:12:53;100775.70;;;28.11;33.90
61436;BME280;47304;47.456;19.160;2023-07-08T09:15:21;100774.66;;;28.19;33.92
61436;BME280;47304;47.456;19.160;2023-07-08T09:17:50;100772.16;;;28.29;33.66
61436;BME280;47304;47.456;19.160;2023-07-08T09:20:27;100766.08;;;28.31;33.37
61436;BME280;47304;47.456;19.160;2023-07-08T09:23:11;100773.42;;;28.32;34.25
61436;BME280;47304;47.456;19.160;2023-07-08T09:25:52;100777.88;;;28.35;33.70
61436;BME280;47304;47.456;19.160;2023-07-08T09:28:20;100778.77;;;28.35;33.78
61436;BME280;47304;47.456;19.160;2023-07-08T09:30:52;100777.73;;;28.32;33.91
61436;BME280;47304;47.456;19.160;2023-07-08T09:33:19;100781.89;;;28.29;34.07
61436;BME280;47304;47.456;19.160;2023-07-08T09:35:47;100786.70;;;28.22;33.56
61436;BME280;47304;47.456;19.160;2023-07-08T09:38:16;100785.77;;;28.14;34.24
61436;BME280;47304;47.456;19.160;2023-07-08T09:40:48;100787.25;;;28.03;33.39
61436;BME280;47304;47.456;19.160;2023-07-08T09:45:45;100784.12;;;27.87;32.66
61436;BME280;47304;47.456;19.160;2023-07-08T09:48:18;100785.30;;;27.78;32.76
61436;BME280;47304;47.456;19.160;2023-07-08T09:50:52;100788.02;;;27.75;32.75
61436;BME280;47304;47.456;19.160;2023-07-08T09:53:19;100786.73;;;27.78;32.81
61436;BME280;47304;47.456;19.160;2023-07-08T09:55:46;100783.15;;;27.86;33.71
61436;BME280;47304;47.456;19.160;2023-07-08T09:58:36;100780.57;;;28.00;34.34
61436;BME280;47304;47.456;19.160;2023-07-08T10:01:09;100779.16;;;28.24;33.48
61436;BME280;47304;47.456;19.160;2023-07-08T10:03:37;100783.14;;;28.31;33.72
61436;BME280;47304;47.456;19.160;2023-07-08T10:06:21;100779.23;;;28.26;33.33
61436;BME280;47304;47.456;19.160;2023-07-08T10:08:48;100775.66;;;28.15;32.17
61436;BME280;47304;47.456;19.160;2023-07-08T10:13:53;100774.98;;;27.97;33.45
61436;BME280;47304;47.456;19.160;2023-07-08T10:16:38;100770.80;;;27.96;33.82
61436;BME280;47304;47.456;19.160;2023-07-08T10:19:12;100768.84;;;27.95;33.41
61436;BME280;47304;47.456;19.160;2023-07-08T10:35:26;100751.92;;;28.77;30.85
61436;BME280;47304;47.456;19.160;2023-07-08T10:41:00;100749.00;;;28.93;30.79
61436;BME280;47304;47.456;19.160;2023-07-08T10:46:26;100742.65;;;29.21;30.45
61436;BME280;47304;47.456;19.160;2023-07-08T10:49:12;100740.05;;;29.29;30.04
61436;BME280;47304;47.456;19.160;2023-07-08T11:00:23;100735.46;;;29.75;31.18
61436;BME280;47304;47.456;19.160;2023-07-08T11:08:35;100730.71;;;29.46;30.56
61436;BME280;47304;47.456;19.160;2023-07-08T11:11:11;100731.55;;;29.43;31.04
61436;BME280;47304;47.456;19.160;2023-07-08T11:13:48;100729.79;;;29.49;30.71
61436;BME280;47304;47.456;19.160;2023-07-08T11:16:24;100727.95;;;29.57;31.20
61436;BME280;47304;47.456;19.160;2023-07-08T11:19:13;100724.73;;;29.66;30.61
61436;BME280;47304;47.456;19.160;2023-07-08T11:21:47;100723.58;;;30.10;30.65
61436;BME280;47304;47.456;19.160;2023-07-08T11:27:10;100720.23;;;30.97;30.09
61436;BME280;47304;47.456;19.160;2023-07-08T11:29:42;100719.08;;;31.20;29.26
61436;BME280;47304;47.456;19.160;2023-07-08T11:32:15;100717.52;;;31.35;28.78
61436;BME280;47304;47.456;19.160;2023-07-08T11:34:44;100716.15;;;31.38;28.09
61436;BME280;47304;47.456;19.160;2023-07-08T11:37:13;100716.77;;;31.31;27.88
61436;BME280;47304;47.456;19.160;2023-07-08T11:39:54;100714.38;;;31.18;28.09
61436;BME280;47304;47.456;19.160;2023-07-08T11:42:22;100707.95;;;31.06;27.93
61436;BME280;47304;47.456;19.160;2023-07-08T11:44:55;100702.65;;;30.95;28.22
61436;BME280;47304;47.456;19.160;2023-07-08T11:47:38;100697.32;;;30.80;28.58
61436;BME280;47304;47.456;19.160;2023-07-08T11:50:29;100695.80;;;30.54;28.38
61436;BME280;47304;47.456;19.160;2023-07-08T11:53:03;100693.77;;;30.34;28.56
61436;BME280;47304;47.456;19.160;2023-07-08T11:55:42;100693.27;;;30.24;28.70
61436;BME280;47304;47.456;19.160;2023-07-08T11:58:25;100693.00;;;30.20;28.99
61436;BME280;47304;47.456;19.160;2023-07-08T12:08:56;100686.16;;;30.31;28.44
61436;BME280;47304;47.456;19.160;2023-07-08T12:11:40;100685.21;;;30.32;28.79
61436;BME280;47304;47.456;19.160;2023-07-08T12:14:07;100680.89;;;30.39;28.98
61436;BME280;47304;47.456;19.160;2023-07-08T12:16:34;100676.27;;;30.43;29.48
61436;BME280;47304;47.456;19.160;2023-07-08T12:19:01;100671.71;;;30.43;29.62
61436;BME280;47304;47.456;19.160;2023-07-08T12:21:28;100670.80;;;30.41;28.84
61436;BME280;47304;47.456;19.160;2023-07-08T12:23:55;100667.08;;;30.38;29.08
61436;BME280;47304;47.456;19.160;2023-07-08T12:26:22;100666.28;;;30.39;28.54
61436;BME280;47304;47.456;19.160;2023-07-08T12:28:48;100670.05;;;30.37;28.81
61436;BME280;47304;47.456;19.160;2023-07-08T12:31:20;100670.27;;;30.38;29.48
61436;BME280;47304;47.456;19.160;2023-07-08T12:33:47;100664.91;;;30.40;28.37
61436;BME280;47304;47.456;19.160;2023-07-08T12:36:22;100664.02;;;30.35;28.00
61436;BME280;47304;47.456;19.160;2023-07-08T12:38:49;100663.68;;;30.23;27.60
61436;BME280;47304;47.456;19.160;2023-07-08T12:41:22;100664.20;;;30.15;27.90
61436;BME280;47304;47.456;19.160;2023-07-08T12:43:50;100664.30;;;30.11;27.70
61436;BME280;47304;47.456;19.160;2023-07-08T12:46:19;100662.73;;;30.08;28.78
61436;BME280;47304;47.456;19.160;2023-07-08T12:48:46;100659.73;;;30.12;29.50
61436;BME280;47304;47.456;19.160;2023-07-08T12:51:16;100657.77;;;30.18;29.17
61436;BME280;47304;47.456;19.160;2023-07-08T12:53:43;100655.07;;;30.23;28.63
61436;BME280;47304;47.456;19.160;2023-07-08T12:56:10;100652.95;;;30.25;28.35
61436;BME280;47304;47.456;19.160;2023-07-08T12:58:40;100649.09;;;30.25;28.28
61436;BME280;47304;47.456;19.160;2023-07-08T13:01:08;100643.79;;;30.26;28.84
61436;BME280;47304;47.456;19.160;2023-07-08T13:03:43;100640.29;;;30.29;29.88
61436;BME280;47304;47.456;19.160;2023-07-08T13:06:12;100639.48;;;30.39;29.72
61436;BME280;47304;47.456;19.160;2023-07-08T13:08:41;100637.48;;;30.49;28.98
61436;BME280;47304;47.456;19.160;2023-07-08T13:11:08;100639.56;;;30.57;29.09
61436;BME280;47304;47.456;19.160;2023-07-08T13:13:40;100639.92;;;30.63;29.19
61436;BME280;47304;47.456;19.160;2023-07-08T13:16:09;100643.00;;;30.70;29.44
61436;BME280;47304;47.456;19.160;2023-07-08T13:18:39;100642.02;;;30.78;29.26
61436;BME280;47304;47.456;19.160;2023-07-08T13:21:11;100639.23;;;30.88;28.81
61436;BME280;47304;47.456;19.160;2023-07-08T13:23:38;100634.51;;;30.92;27.55
61436;BME280;47304;47.456;19.160;2023-07-08T13:26:16;100636.06;;;31.00;28.39
61436;BME280;47304;47.456;19.160;2023-07-08T13:28:43;100633.83;;;31.19;28.15
61436;BME280;47304;47.456;19.160;2023-07-08T13:31:22;100631.77;;;31.32;27.23
61436;BME280;47304;47.456;19.160;2023-07-08T13:33:55;100628.05;;;31.29;27.04
61436;BME280;47304;47.456;19.160;2023-07-08T13:36:31;100627.05;;;31.28;27.64
61436;BME280;47304;47.456;19.160;2023-07-08T13:39:06;100630.01;;;31.32;27.78
61436;BME280;47304;47.456;19.160;2023-07-08T13:41:35;100628.68;;;31.35;27.62
61436;BME280;47304;47.456;19.160;2023-07-08T13:44:06;100630.13;;;31.39;27.51
61436;BME280;47304;47.456;19.160;2023-07-08T13:47:17;100628.66;;;31.46;27.37
61436;BME280;47304;47.456;19.160;2023-07-08T13:49:39;100625.42;;;31.56;28.25
61436;BME280;47304;47.456;19.160;2023-07-08T13:52:17;100624.25;;;31.66;27.57